createdAt,value
2023-03-07T06:03:05.868Z,500.00
2023-03-07T06:04:06.936Z,500.00
2023-03-07T06:05:06.909Z,500.00
2023-03-07T06:06:06.914Z,500.00
2023-03-07T06:07:06.949Z,500.00
2023-03-07T06:08:07.035Z,500.00
2023-03-07T06:09:06.993Z,400.00
2023-03-07T06:10:07.002Z,400.00
2023-03-07T06:11:07.033Z,400.00
2023-03-07T06:12:07.094Z,400.00
2023-03-07T06:13:07.154Z,400.00
2023-03-07T06:14:06.190Z,400.00
2023-03-07T06:15:07.214Z,400.00
2023-03-07T06:16:07.312Z,400.00
2023-03-07T06:17:07.282Z,400.00
2023-03-07T06:18:07.297Z,400.00
2023-03-07T06:19:07.354Z,400.00
2023-03-07T06:20:06.345Z,434.00
2023-03-07T06:21:07.390Z,468.00
2023-03-07T06:22:07.409Z,499.00
2023-03-07T06:23:07.432Z,500.00
2023-03-07T06:24:07.490Z,505.00
2023-03-07T06:25:07.494Z,500.00
2023-03-07T06:26:07.517Z,500.00
2023-03-07T06:27:07.546Z,501.00
2023-03-07T06:28:07.567Z,503.00
2023-03-07T06:29:07.608Z,505.00
2023-03-07T06:30:06.615Z,500.00
2023-03-07T06:31:07.713Z,506.00
2023-03-07T06:32:07.802Z,502.00
2023-03-07T06:33:06.714Z,501.00
2023-03-07T06:34:07.749Z,502.00
2023-03-07T06:35:07.802Z,502.00
2023-03-07T06:36:07.877Z,503.00
2023-03-07T06:37:07.824Z,503.00
2023-03-07T06:38:07.854Z,504.00
2023-03-07T06:39:07.902Z,502.00
2023-03-07T06:40:06.923Z,504.00
2023-03-07T06:41:07.948Z,501.00
2023-03-07T06:42:07.990Z,500.00
2023-03-07T06:43:07.991Z,503.00
2023-03-07T06:44:08.028Z,501.00
2023-03-07T06:45:08.041Z,502.00
2023-03-07T06:46:08.224Z,503.00
2023-03-07T06:47:08.085Z,501.00
2023-03-07T06:48:08.123Z,503.00
2023-03-07T06:49:08.146Z,500.00
2023-03-07T06:50:07.179Z,502.00
2023-03-07T06:51:08.244Z,503.00
2023-03-07T06:52:08.220Z,501.00
2023-03-07T06:53:08.240Z,505.00
2023-03-07T06:54:08.269Z,506.00
2023-03-07T06:55:08.312Z,501.00
2023-03-07T06:56:08.335Z,507.00
2023-03-07T06:57:08.340Z,503.00
2023-03-07T06:58:08.373Z,504.00
2023-03-07T06:59:08.608Z,507.00
2023-03-07T07:00:08.424Z,504.00
2023-03-07T07:01:08.535Z,505.00
2023-03-07T07:02:08.580Z,500.00
2023-03-07T07:03:08.643Z,506.00
2023-03-07T07:04:08.572Z,505.00
2023-03-07T07:05:07.549Z,503.00
2023-03-07T07:06:08.605Z,507.00
2023-03-07T07:07:08.602Z,504.00
2023-03-07T07:08:08.661Z,505.00
2023-03-07T07:09:08.616Z,502.00
2023-03-07T07:10:08.647Z,503.00
2023-03-07T07:11:08.678Z,503.00
2023-03-07T07:12:08.686Z,500.00
2023-03-07T07:13:08.711Z,504.00
2023-03-07T07:14:08.733Z,502.00
2023-03-07T07:15:08.755Z,502.00
2023-03-07T07:16:08.819Z,505.00
2023-03-07T07:17:08.777Z,504.00
2023-03-07T07:18:11.327Z,502.00
2023-03-07T07:19:07.816Z,506.00
2023-03-07T07:20:08.787Z,505.00
2023-03-07T07:21:08.796Z,500.00
2023-03-07T07:22:08.790Z,505.00
2023-03-07T07:23:08.788Z,503.00
2023-03-07T07:24:08.772Z,501.00
2023-03-07T07:25:08.758Z,505.00
2023-03-07T07:26:07.748Z,503.00
2023-03-07T07:27:09.937Z,502.00
2023-03-07T07:28:07.726Z,502.00
2023-03-07T07:29:08.771Z,502.00
2023-03-07T07:30:07.749Z,503.00
2023-03-07T07:31:08.776Z,504.00
2023-03-07T07:32:08.994Z,501.00
2023-03-07T07:33:08.873Z,500.00
2023-03-07T07:34:08.691Z,501.00
2023-03-07T07:35:08.688Z,508.00
2023-03-07T07:36:07.761Z,507.00
2023-03-07T07:37:08.671Z,505.00
2023-03-07T07:38:08.662Z,504.00
2023-03-07T07:39:08.706Z,506.00
2023-03-07T07:40:08.645Z,502.00
2023-03-07T07:41:08.644Z,501.00
2023-03-07T07:42:08.636Z,503.00
2023-03-07T07:43:07.638Z,505.00
2023-03-07T07:44:07.632Z,506.00
2023-03-07T07:45:07.630Z,502.00
2023-03-07T07:46:08.707Z,503.00
2023-03-07T07:47:08.605Z,505.00
2023-03-07T07:48:07.588Z,503.00
2023-03-07T07:49:08.588Z,505.00
2023-03-07T07:50:07.574Z,505.00
2023-03-07T07:51:08.565Z,500.00
2023-03-07T07:52:07.570Z,505.00
2023-03-07T07:53:08.549Z,509.00
2023-03-07T07:54:08.556Z,503.00
2023-03-07T07:55:07.578Z,504.00
2023-03-07T07:56:08.548Z,504.00
2023-03-07T07:57:08.533Z,505.00
2023-03-07T07:58:08.531Z,506.00
2023-03-07T07:59:08.519Z,506.00
2023-03-07T08:00:08.512Z,504.00
2023-03-07T08:01:08.506Z,502.00
2023-03-07T08:02:08.520Z,506.00
2023-03-07T08:03:08.564Z,511.00
2023-03-07T08:04:08.482Z,508.00
2023-03-07T08:05:07.477Z,508.00
2023-03-07T08:06:07.472Z,506.00
2023-03-07T08:07:08.448Z,503.00
2023-03-07T08:08:08.453Z,506.00
2023-03-07T08:09:08.438Z,509.00
2023-03-07T08:10:08.443Z,509.00
2023-03-07T08:11:08.455Z,510.00
2023-03-07T08:12:07.428Z,505.00
2023-03-07T08:13:08.417Z,511.00
2023-03-07T08:14:08.413Z,506.00
2023-03-07T08:15:08.387Z,508.00
2023-03-07T08:16:08.479Z,504.00
2023-03-07T08:17:07.379Z,507.00
2023-03-07T08:18:08.376Z,505.00
2023-03-07T08:19:08.360Z,503.00
2023-03-07T08:20:08.383Z,504.00
2023-03-07T08:21:08.359Z,505.00
2023-03-07T08:22:08.350Z,501.00
2023-03-07T08:23:08.338Z,504.00
2023-03-07T08:24:08.338Z,503.00
2023-03-07T08:25:08.326Z,500.00
2023-03-07T08:26:08.363Z,503.00
2023-03-07T08:27:08.364Z,506.00
2023-03-07T08:28:08.292Z,507.00
2023-03-07T08:29:08.317Z,508.00
2023-03-07T08:30:08.290Z,508.00
2023-03-07T08:31:08.326Z,516.00
2023-03-07T08:32:09.942Z,513.00
2023-03-07T08:33:08.261Z,513.00
2023-03-07T08:34:08.257Z,513.00
2023-03-07T08:35:08.241Z,507.00
2023-03-07T08:36:08.292Z,512.00
2023-03-07T08:37:08.231Z,517.00
2023-03-07T08:38:07.213Z,516.00
2023-03-07T08:39:07.209Z,515.00
2023-03-07T08:40:08.199Z,516.00
2023-03-07T08:41:08.191Z,518.00
2023-03-07T08:42:08.267Z,517.00
2023-03-07T08:43:07.210Z,517.00
2023-03-07T08:44:07.200Z,521.00
2023-03-07T08:45:08.166Z,518.00
2023-03-07T08:46:08.268Z,517.00
2023-03-07T08:47:08.142Z,519.00
2023-03-07T08:48:08.160Z,519.00
2023-03-07T08:49:08.656Z,518.00
2023-03-07T08:50:08.126Z,516.00
2023-03-07T08:51:08.130Z,517.00
2023-03-07T08:52:08.110Z,510.00
2023-03-07T08:53:08.115Z,514.00
2023-03-07T08:54:07.107Z,514.00
2023-03-07T08:55:08.107Z,513.00
2023-03-07T08:56:08.103Z,520.00
2023-03-07T08:57:08.138Z,514.00
2023-03-07T08:58:07.079Z,514.00
2023-03-07T08:59:08.098Z,518.00
2023-03-07T09:00:07.086Z,517.00
2023-03-07T09:01:07.043Z,512.00
2023-03-07T09:02:07.107Z,517.00
2023-03-07T09:03:07.033Z,510.00
2023-03-07T09:04:07.012Z,508.00
2023-03-07T09:05:08.131Z,508.00
2023-03-07T09:06:08.001Z,510.00
2023-03-07T09:07:07.049Z,513.00
2023-03-07T09:08:07.983Z,509.00
2023-03-07T09:09:08.045Z,508.00
2023-03-07T09:10:08.068Z,510.00
2023-03-07T09:11:06.950Z,513.00
2023-03-07T09:12:07.952Z,515.00
2023-03-07T09:13:07.932Z,508.00
2023-03-07T09:14:07.951Z,510.00
2023-03-07T09:15:07.954Z,502.00
2023-03-07T09:16:06.980Z,512.00
2023-03-07T09:17:07.926Z,504.00
2023-03-07T09:18:06.905Z,500.00
2023-03-07T09:19:07.898Z,506.00
2023-03-07T09:20:07.895Z,502.00
2023-03-07T09:21:06.956Z,507.00
2023-03-07T09:22:06.960Z,509.00
2023-03-07T09:23:06.909Z,502.00
2023-03-07T09:24:07.897Z,509.00
2023-03-07T09:25:06.955Z,507.00
2023-03-07T09:26:08.022Z,509.00
2023-03-07T09:27:07.083Z,512.00
2023-03-07T09:28:07.142Z,510.00
2023-03-07T09:29:07.208Z,510.00
2023-03-07T09:30:07.269Z,510.00
2023-03-07T09:31:08.436Z,503.00
2023-03-07T09:32:07.425Z,502.00
2023-03-07T09:33:08.516Z,508.00
2023-03-07T09:34:08.525Z,508.00
2023-03-07T09:35:07.565Z,514.00
2023-03-07T09:36:08.683Z,505.00
2023-03-07T09:37:08.693Z,503.00
2023-03-07T09:38:08.749Z,511.00
2023-03-07T09:39:07.817Z,508.00
2023-03-07T09:40:07.898Z,513.00
2023-03-07T09:41:08.977Z,519.00
2023-03-07T09:42:09.023Z,512.00
2023-03-07T09:43:09.071Z,513.00
2023-03-07T09:44:09.173Z,512.00
2023-03-07T09:45:09.185Z,506.00
2023-03-07T09:46:09.365Z,510.00
2023-03-07T09:47:09.471Z,516.00
2023-03-07T09:48:09.338Z,510.00
2023-03-07T09:49:09.409Z,501.00
2023-03-07T09:50:09.447Z,500.00
2023-03-07T09:51:11.929Z,507.00
2023-03-07T09:52:10.341Z,515.00
2023-03-07T09:53:09.497Z,505.00
2023-03-07T09:54:09.506Z,504.00
2023-03-07T09:55:09.477Z,508.00
2023-03-07T09:56:09.468Z,508.00
2023-03-07T09:57:09.487Z,502.00
2023-03-07T09:58:09.505Z,502.00
2023-03-07T09:59:21.760Z,506.00
2023-03-07T10:00:09.675Z,507.00
2023-03-07T10:01:09.441Z,507.00
2023-03-07T10:02:09.520Z,507.00
2023-03-07T10:03:08.653Z,507.00
2023-03-07T10:04:09.440Z,505.00
2023-03-07T10:05:09.412Z,501.00
2023-03-07T10:06:08.390Z,502.00
2023-03-07T10:07:08.389Z,508.00
2023-03-07T10:08:09.466Z,500.00
2023-03-07T10:09:08.569Z,508.00
2023-03-07T10:10:09.506Z,513.00
2023-03-07T10:11:09.580Z,505.00
2023-03-07T10:12:09.613Z,518.00
2023-03-07T10:13:09.753Z,520.00
2023-03-07T10:14:09.792Z,513.00
2023-03-07T10:15:09.767Z,516.00
2023-03-07T10:16:09.815Z,515.00
2023-03-07T10:17:08.867Z,525.00
2023-03-07T10:18:09.903Z,523.00
2023-03-07T10:19:09.953Z,520.00
2023-03-07T10:20:08.987Z,530.00
2023-03-07T10:21:10.026Z,530.00
2023-03-07T10:22:10.068Z,530.00
2023-03-07T10:23:10.101Z,530.00
2023-03-07T10:24:09.137Z,532.00
2023-03-07T10:25:10.221Z,531.00
2023-03-07T10:26:10.217Z,528.00
2023-03-07T10:27:10.328Z,525.00
2023-03-07T10:28:10.298Z,524.00
2023-03-07T10:29:10.333Z,536.00
2023-03-07T10:30:10.367Z,532.00
2023-03-07T10:31:10.411Z,527.00
2023-03-07T10:32:10.595Z,532.00
2023-03-07T10:33:10.482Z,524.00
2023-03-07T10:34:11.145Z,526.00
2023-03-07T10:35:10.548Z,526.00
2023-03-07T10:36:10.563Z,526.00
2023-03-07T10:37:10.492Z,519.00
2023-03-07T10:38:10.515Z,511.00
2023-03-07T10:39:10.479Z,517.00
2023-03-07T10:40:10.473Z,515.00
2023-03-07T10:41:09.478Z,509.00
2023-03-07T10:42:10.455Z,502.00
2023-03-07T10:43:10.527Z,501.00
2023-03-07T10:44:10.445Z,504.00
2023-03-07T10:45:12.518Z,506.00
2023-03-07T10:46:23.847Z,513.00
2023-03-07T10:47:10.440Z,513.00
2023-03-07T10:48:10.402Z,514.00
2023-03-07T10:49:11.068Z,505.00
2023-03-07T10:50:11.221Z,496.00
2023-03-07T10:51:10.438Z,491.00
2023-03-07T10:52:09.395Z,504.00
2023-03-07T10:53:10.403Z,498.00
2023-03-07T10:54:10.435Z,501.00
2023-03-07T10:55:10.391Z,505.00
2023-03-07T10:56:10.426Z,500.00
2023-03-07T10:57:10.446Z,507.00
2023-03-07T10:58:10.506Z,512.00
2023-03-07T10:59:09.617Z,507.00
2023-03-07T11:00:10.589Z,512.00
2023-03-07T11:01:10.730Z,504.00
2023-03-07T11:02:10.691Z,511.00
2023-03-07T11:03:10.754Z,514.00
2023-03-07T11:04:10.793Z,511.00
2023-03-07T11:05:10.940Z,500.00
2023-03-07T11:06:10.887Z,511.00
2023-03-07T11:07:11.002Z,504.00
2023-03-07T11:08:10.981Z,505.00
2023-03-07T11:09:11.025Z,511.00
2023-03-07T11:10:11.045Z,507.00
2023-03-07T11:11:10.107Z,508.00
2023-03-07T11:12:11.162Z,517.00
2023-03-07T11:13:11.172Z,524.00
2023-03-07T11:14:13.323Z,521.00
2023-03-07T11:15:11.191Z,522.00
2023-03-07T11:16:11.990Z,522.00
2023-03-07T11:17:10.164Z,525.00
2023-03-07T11:18:11.176Z,523.00
2023-03-07T11:19:11.172Z,528.00
2023-03-07T11:20:10.164Z,525.00
2023-03-07T11:21:11.139Z,528.00
2023-03-07T11:22:11.132Z,525.00
2023-03-07T11:23:11.144Z,527.00
2023-03-07T11:24:11.207Z,523.00
2023-03-07T11:25:11.109Z,526.00
2023-03-07T11:26:11.128Z,529.00
2023-03-07T11:27:11.104Z,528.00
2023-03-07T11:28:11.094Z,530.00
2023-03-07T11:29:11.083Z,534.00
2023-03-07T11:30:11.103Z,528.00
2023-03-07T11:31:11.202Z,533.00
2023-03-07T11:32:11.271Z,530.00
2023-03-07T11:33:10.235Z,532.00
2023-03-07T11:34:11.250Z,534.00
2023-03-07T11:35:11.290Z,533.00
2023-03-07T11:36:10.325Z,527.00
2023-03-07T11:37:11.361Z,527.00
2023-03-07T11:38:11.403Z,531.00
2023-03-07T11:39:11.485Z,530.00
2023-03-07T11:40:11.509Z,531.00
2023-03-07T11:41:11.550Z,525.00
2023-03-07T11:42:11.589Z,521.00
2023-03-07T11:43:11.641Z,526.00
2023-03-07T11:44:10.717Z,523.00
2023-03-07T11:45:10.717Z,504.00
2023-03-07T11:46:10.773Z,500.00
2023-03-07T11:47:11.721Z,505.00
2023-03-07T11:48:10.713Z,505.00
2023-03-07T11:49:10.772Z,504.00
2023-03-07T11:50:11.732Z,500.00
2023-03-07T11:51:11.737Z,507.00
2023-03-07T11:52:11.808Z,514.00
2023-03-07T11:53:11.911Z,513.00
2023-03-07T11:54:11.844Z,515.00
2023-03-07T11:55:10.925Z,514.00
2023-03-07T11:56:11.876Z,508.00
2023-03-07T11:57:10.881Z,506.00
2023-03-07T11:58:10.881Z,499.00
2023-03-07T11:59:11.869Z,510.00
2023-03-07T12:00:11.882Z,505.00
2023-03-07T12:01:12.250Z,502.00
2023-03-07T12:02:10.867Z,502.00
2023-03-07T12:03:10.954Z,508.00
2023-03-07T12:04:11.888Z,501.00
2023-03-07T12:05:10.890Z,506.00
2023-03-07T12:06:10.947Z,503.00
2023-03-07T12:07:10.856Z,503.00
2023-03-07T12:08:11.845Z,500.00
2023-03-07T12:09:11.115Z,508.00
2023-03-07T12:10:10.835Z,500.00
2023-03-07T12:11:11.918Z,513.00
2023-03-07T12:12:11.851Z,505.00
2023-03-07T12:13:11.852Z,508.00
2023-03-07T12:14:11.875Z,512.00
2023-03-07T12:15:11.870Z,515.00
2023-03-07T12:16:11.941Z,514.00
2023-03-07T12:17:10.879Z,513.00
2023-03-07T12:18:11.824Z,511.00
2023-03-07T12:19:11.815Z,508.00
2023-03-07T12:20:11.917Z,508.00
2023-03-07T12:21:11.850Z,523.00
2023-03-07T12:22:10.878Z,524.00
2023-03-07T12:23:10.815Z,521.00
2023-03-07T12:24:11.802Z,513.00
2023-03-07T12:25:11.808Z,521.00
2023-03-07T12:26:11.806Z,527.00
2023-03-07T12:27:11.837Z,521.00
2023-03-07T12:28:10.883Z,516.00
2023-03-07T12:29:11.783Z,524.00
2023-03-07T12:30:10.782Z,527.00
2023-03-07T12:31:11.807Z,528.00
2023-03-07T12:32:12.187Z,516.00
2023-03-07T12:33:11.887Z,516.00
2023-03-07T12:34:11.780Z,528.00
2023-03-07T12:35:10.795Z,517.00
2023-03-07T12:36:12.703Z,533.00
2023-03-07T12:37:11.788Z,545.00
2023-03-07T12:38:11.782Z,527.00
2023-03-07T12:39:11.837Z,543.00
2023-03-07T12:40:10.781Z,541.00
2023-03-07T12:41:11.773Z,542.00
2023-03-07T12:42:10.763Z,544.00
2023-03-07T12:43:10.796Z,527.00
2023-03-07T12:44:11.773Z,533.00
2023-03-07T12:45:10.786Z,540.00
2023-03-07T12:46:11.856Z,557.00
2023-03-07T12:47:11.760Z,561.00
2023-03-07T12:48:11.768Z,560.00
2023-03-07T12:49:11.752Z,566.00
2023-03-07T12:50:11.765Z,569.00
2023-03-07T12:51:10.765Z,554.00
2023-03-07T12:52:11.752Z,558.00
2023-03-07T12:53:10.744Z,568.00
2023-03-07T12:54:11.753Z,554.00
2023-03-07T12:55:11.736Z,542.00
2023-03-07T12:56:10.734Z,546.00
2023-03-07T12:57:10.744Z,553.00
2023-03-07T12:58:11.744Z,549.00
2023-03-07T12:59:10.867Z,546.00
2023-03-07T13:00:11.728Z,543.00
2023-03-07T13:01:10.790Z,539.00
2023-03-07T13:02:10.730Z,538.00
2023-03-07T13:03:11.713Z,539.00
2023-03-07T13:04:11.745Z,539.00
2023-03-07T13:05:11.742Z,537.00
2023-03-07T13:06:11.706Z,529.00
2023-03-07T13:07:11.703Z,527.00
2023-03-07T13:08:12.753Z,522.00
2023-03-07T13:09:11.878Z,519.00
2023-03-07T13:10:11.961Z,526.00
2023-03-07T13:11:11.893Z,519.00
2023-03-07T13:12:11.894Z,514.00
2023-03-07T13:13:11.893Z,520.00
2023-03-07T13:14:10.877Z,517.00
2023-03-07T13:15:11.961Z,516.00
2023-03-07T13:16:11.890Z,506.00
2023-03-07T13:17:10.883Z,510.00
2023-03-07T13:18:10.876Z,516.00
2023-03-07T13:19:11.883Z,528.00
2023-03-07T13:20:10.958Z,524.00
2023-03-07T13:21:10.935Z,531.00
2023-03-07T13:22:11.885Z,520.00
2023-03-07T13:23:11.950Z,529.00
2023-03-07T13:24:11.880Z,528.00
2023-03-07T13:25:11.868Z,526.00
2023-03-07T13:26:11.885Z,517.00
2023-03-07T13:27:11.847Z,526.00
2023-03-07T13:28:11.863Z,525.00
2023-03-07T13:29:10.853Z,522.00
2023-03-07T13:30:11.990Z,523.00
2023-03-07T13:31:11.977Z,531.00
2023-03-07T13:32:11.945Z,523.00
2023-03-07T13:33:11.848Z,528.00
2023-03-07T13:34:11.837Z,512.00
2023-03-07T13:35:11.855Z,521.00
2023-03-07T13:36:11.846Z,514.00
2023-03-07T13:37:10.829Z,525.00
2023-03-07T13:38:10.842Z,522.00
2023-03-07T13:39:10.843Z,521.00
2023-03-07T13:40:10.909Z,527.00
2023-03-07T13:41:11.845Z,549.00
2023-03-07T13:42:11.858Z,552.00
2023-03-07T13:43:11.890Z,567.00
2023-03-07T13:44:11.950Z,558.00
2023-03-07T13:45:12.015Z,566.00
2023-03-07T13:46:12.097Z,568.00
2023-03-07T13:47:11.236Z,581.00
2023-03-07T13:48:12.167Z,581.00
2023-03-07T13:49:12.233Z,581.00
2023-03-07T13:50:12.299Z,582.00
2023-03-07T13:51:12.353Z,594.00
2023-03-07T13:52:12.404Z,595.00
2023-03-07T13:53:12.482Z,595.00
2023-03-07T13:54:12.530Z,596.00
2023-03-07T13:55:11.606Z,589.00
2023-03-07T13:56:12.669Z,597.00
2023-03-07T13:57:11.724Z,594.00
2023-03-07T13:58:12.770Z,581.00
2023-03-07T13:59:12.833Z,577.00
2023-03-07T14:00:12.918Z,590.00
2023-03-07T14:01:11.965Z,613.00
2023-03-07T14:02:12.997Z,638.00
2023-03-07T14:03:13.094Z,637.00
2023-03-07T14:04:13.116Z,643.00
2023-03-07T14:05:12.159Z,641.00
2023-03-07T14:06:13.200Z,644.00
2023-03-07T14:07:13.260Z,645.00
2023-03-07T14:08:13.307Z,652.00
2023-03-07T14:09:13.397Z,654.00
2023-03-07T14:10:21.894Z,652.00
2023-03-07T14:11:13.362Z,653.00
2023-03-07T14:12:12.351Z,654.00
2023-03-07T14:13:13.364Z,656.00
2023-03-07T14:14:14.549Z,664.00
2023-03-07T14:15:13.345Z,704.00
2023-03-07T14:16:12.408Z,690.00
2023-03-07T14:17:12.325Z,680.00
2023-03-07T14:18:13.341Z,665.00
2023-03-07T14:19:13.411Z,664.00
2023-03-07T14:20:13.310Z,660.00
2023-03-07T14:21:13.354Z,661.00
2023-03-07T14:22:13.396Z,665.00
2023-03-07T14:23:13.426Z,667.00
2023-03-07T14:24:12.488Z,664.00
2023-03-07T14:25:13.515Z,668.00
2023-03-07T14:26:13.557Z,666.00
2023-03-07T14:27:13.589Z,701.00
2023-03-07T14:28:12.636Z,694.00
2023-03-07T14:29:13.670Z,671.00
2023-03-07T14:30:13.698Z,662.00
2023-03-07T14:31:13.757Z,674.00
2023-03-07T14:32:12.868Z,666.00
2023-03-07T14:33:13.811Z,669.00
2023-03-07T14:34:12.862Z,664.00
2023-03-07T14:35:13.907Z,669.00
2023-03-07T14:36:12.964Z,659.00
2023-03-07T14:37:13.977Z,658.00
2023-03-07T14:38:13.964Z,652.00
2023-03-07T14:39:13.994Z,639.00
2023-03-07T14:40:14.043Z,643.00
2023-03-07T14:41:14.072Z,636.00
2023-03-07T14:42:14.084Z,631.00
2023-03-07T14:43:14.141Z,637.00
2023-03-07T14:44:13.161Z,634.00
2023-03-07T14:45:14.177Z,644.00
2023-03-07T14:46:14.236Z,639.00
2023-03-07T14:47:14.271Z,638.00
2023-03-07T14:48:14.262Z,649.00
2023-03-07T14:49:14.306Z,648.00
2023-03-07T14:50:14.328Z,652.00
2023-03-07T14:51:14.394Z,641.00
2023-03-07T14:52:24.638Z,643.00
2023-03-07T14:53:14.374Z,643.00
2023-03-07T14:54:14.369Z,643.00
2023-03-07T14:55:14.358Z,635.00
2023-03-07T14:56:14.361Z,642.00
2023-03-07T14:57:14.342Z,644.00
2023-03-07T14:58:14.336Z,630.00
2023-03-07T14:59:25.935Z,624.00
2023-03-07T15:00:14.343Z,625.00
2023-03-07T15:01:14.303Z,625.00
2023-03-07T15:02:13.336Z,625.00
2023-03-07T15:03:14.320Z,634.00
2023-03-07T15:04:14.331Z,643.00
2023-03-07T15:05:14.284Z,642.00
2023-03-07T15:06:14.263Z,638.00
2023-03-07T15:07:13.383Z,643.00
2023-03-07T15:08:14.264Z,653.00
2023-03-07T15:09:14.257Z,652.00
2023-03-07T15:10:14.270Z,654.00
2023-03-07T15:11:14.250Z,660.00
2023-03-07T15:12:14.228Z,652.00
2023-03-07T15:13:14.229Z,663.00
2023-03-07T15:14:14.213Z,653.00
2023-03-07T15:15:14.198Z,649.00
2023-03-07T15:16:14.230Z,644.00
2023-03-07T15:17:14.213Z,646.00
2023-03-07T15:18:14.242Z,646.00
2023-03-07T15:19:14.263Z,648.00
2023-03-07T15:20:14.313Z,645.00
2023-03-07T15:21:14.339Z,649.00
2023-03-07T15:22:14.411Z,645.00
2023-03-07T15:23:14.419Z,641.00
2023-03-07T15:24:14.445Z,629.00
2023-03-07T15:25:14.489Z,631.00
2023-03-07T15:26:14.546Z,643.00
2023-03-07T15:27:14.563Z,640.00
2023-03-07T15:28:14.608Z,620.00
2023-03-07T15:29:14.666Z,624.00
2023-03-07T15:30:14.714Z,694.00
2023-03-07T15:31:14.852Z,1021.00
2023-03-07T15:32:14.869Z,1221.00
2023-03-07T15:33:14.825Z,1355.00
2023-03-07T15:34:14.881Z,1594.00
2023-03-07T15:35:14.938Z,1730.00
2023-03-07T15:36:14.959Z,1864.00
2023-03-07T15:37:13.994Z,1986.00
2023-03-07T15:38:15.036Z,2080.00
2023-03-07T15:39:15.090Z,2179.00
2023-03-07T15:40:15.108Z,2266.00
2023-03-07T15:41:15.149Z,2292.00
2023-03-07T15:42:15.184Z,2286.00
2023-03-07T15:43:15.226Z,2288.00
2023-03-07T15:44:15.285Z,2367.00
2023-03-07T15:45:15.309Z,2446.00
2023-03-07T15:46:14.375Z,2475.00
2023-03-07T15:47:15.402Z,2504.00
2023-03-07T15:48:15.454Z,2549.00
2023-03-07T15:49:14.499Z,2605.00
2023-03-07T15:50:14.558Z,2646.00
2023-03-07T15:51:15.616Z,2623.00
2023-03-07T15:52:15.670Z,2662.00
2023-03-07T15:53:14.732Z,2648.00
2023-03-07T15:54:14.785Z,2643.00
2023-03-07T15:55:14.869Z,2617.00
2023-03-07T15:56:15.916Z,2584.00
2023-03-07T15:57:15.979Z,2560.00
2023-03-07T15:58:16.021Z,2501.00
2023-03-07T15:59:15.071Z,2460.00
2023-03-07T16:00:16.159Z,2375.00
2023-03-07T16:01:16.171Z,2353.00
2023-03-07T16:02:16.177Z,2318.00
2023-03-07T16:03:15.287Z,2236.00
2023-03-07T16:04:16.198Z,2197.00
2023-03-07T16:05:16.197Z,2121.00
2023-03-07T16:06:16.200Z,2109.00
2023-03-07T16:07:16.201Z,2006.00
2023-03-07T16:08:16.203Z,1954.00
2023-03-07T16:09:15.186Z,1848.00
2023-03-07T16:10:16.188Z,1724.00
2023-03-07T16:11:16.219Z,1751.00
2023-03-07T16:12:16.184Z,1659.00
2023-03-07T16:13:16.214Z,1658.00
2023-03-07T16:14:16.209Z,1646.00
2023-03-07T16:15:15.208Z,1498.00
2023-03-07T16:16:16.290Z,1498.00
2023-03-07T16:17:16.237Z,1509.00
2023-03-07T16:18:16.389Z,1390.00
2023-03-07T16:19:15.282Z,1334.00
2023-03-07T16:20:16.314Z,1378.00
2023-03-07T16:21:16.358Z,1331.00
2023-03-07T16:22:16.363Z,1316.00
2023-03-07T16:23:16.422Z,1318.00
2023-03-07T16:24:16.440Z,1339.00
2023-03-07T16:25:16.506Z,1266.00
2023-03-07T16:26:16.554Z,1259.00
2023-03-07T16:27:15.574Z,1254.00
2023-03-07T16:28:16.592Z,1253.00
2023-03-07T16:29:16.619Z,1255.00
